Impacts METAR Board
IDs:

KDEN - Denver Intl, CO, US

Updated at: 0300 UTC 22 Jun 2018
Potential Impact None Slight Moderate High
Time 21/15Z 21/16Z 21/17Z 21/18Z 21/19Z 21/20Z 21/21Z 21/22Z 21/23Z 22/00Z 22/01Z 22/02Z 22/03Z
Temp67 69 75 78 81 82 84 85 82 82 81 78 70
Dewpt50 49 49 47 45 44 45 45 44 45 45 44 47
Altim30.18 30.17 30.16 30.15 30.14 30.11 30.10 30.07 30.11 30.08 30.06 30.08 30.07
VIS10 10 10 10 10 10 10 10 10 10 10 10 10
CIG-- -- -- -- -- -- -- -- 120 -- -- -- --
CoverFEWFEWFEWFEWFEWFEWFEWFEWBKNSCTSCTFEWFEW
FltCatVFRVFRVFRVFRVFRVFRVFRVFRVFRVFRVFRVFRVFR
WX--------------------------
WDir320210330403005050360409011080
WSpd3 6 5 6 10 5 3 16 10 11 7 7 9
WGst-- -- -- 15 15 17 -- 23 15 -- -- -- --
Raw hourly METARs
KDEN 211453Z 32003KT 10SM FEW220 19/10 A3018 RMK AO2 SLP152 T01940100 55003
KDEN 211553Z 21006KT 10SM FEW220 21/09 A3017 RMK AO2 SLP147 T02060094
KDEN 211653Z 33005KT 10SM FEW220 24/09 A3016 RMK AO2 SLP140 T02390094
KDEN 211753Z 04006G15KT 10SM FEW090 FEW120 FEW220 26/08 A3015 RMK AO2 SLP137 T02560083 10261 20100 56009
KDEN 211853Z 03010G15KT 10SM FEW090 FEW120 FEW220 27/07 A3014 RMK AO2 SLP132 T02720072
KDEN 211953Z VRB05G17KT 10SM FEW090 FEW120 FEW220 28/07 A3011 RMK AO2 SLP122 T02780067
KDEN 212053Z 05003KT 10SM FEW100 FEW120 FEW220 29/07 A3010 RMK AO2 SLP115 T02890072 56017
KDEN 212153Z 05016G23KT 10SM FEW120 FEW220 29/07 A3007 RMK AO2 SLP111 TCU DSNT W-N T02940072
KDEN 212253Z 36010G15KT 10SM BKN120 BKN220 28/07 A3011 RMK AO2 SLP129 VIRGA OHD T02780067
KDEN 212353Z 04011KT 10SM FEW120 SCT220 28/07 A3008 RMK AO2 SLP119 VIRGA DSNT N T02780072 10300 20256 58004
KDEN 220053Z 09007KT 10SM FEW120 SCT220 27/07 A3006 RMK AO2 SLP104 T02720072
KDEN 220153Z 11007KT 10SM FEW120 FEW220 26/07 A3008 RMK AO2 SLP108 T02560067
KDEN 220253Z 08009KT 10SM FEW120 FEW220 21/08 A3007 RMK AO2 SLP108 T02110083 56004



Page loaded:  03:13 UTC  |   08:13 PM Pacific  |   09:13 PM Mountain  |   10:13 PM Central  |   11:13 PM Eastern

 

ADVISORIES

FORECASTS

FORECASTS

OBSERVATIONS

USER TOOLS

ABOUT US